createdAt,value
2023-07-17T00:04:36.092Z,8.32
2023-07-17T00:10:42.596Z,6.53
2023-07-17T00:16:51.471Z,4.85
2023-07-17T00:23:09.458Z,5.97
2023-07-17T00:29:32.183Z,5.75
2023-07-17T00:35:37.842Z,4.93
2023-07-17T00:41:45.575Z,6.80
2023-07-17T00:47:52.833Z,8.40
2023-07-17T00:53:57.093Z,8.07
2023-07-17T01:00:01.539Z,5.35
2023-07-17T01:06:04.036Z,8.98
2023-07-17T01:12:06.473Z,5.93
2023-07-17T01:18:10.043Z,7.13
2023-07-17T01:24:12.432Z,8.93
2023-07-17T01:30:14.871Z,6.50
2023-07-17T01:36:18.438Z,8.20
2023-07-17T01:42:28.962Z,5.38
2023-07-17T01:48:30.847Z,5.70
2023-07-17T01:54:35.890Z,6.82
2023-07-17T02:00:38.329Z,5.50
2023-07-17T02:06:42.796Z,5.68
2023-07-17T02:12:48.262Z,5.10
2023-07-17T02:19:05.801Z,5.75
2023-07-17T02:25:09.566Z,5.38
2023-07-17T02:31:16.007Z,7.47
2023-07-17T02:37:24.188Z,5.63
2023-07-17T02:43:26.647Z,5.10
2023-07-17T02:49:29.125Z,7.78
2023-07-17T02:55:31.659Z,5.82
2023-07-17T03:01:40.162Z,6.13
2023-07-17T03:07:45.541Z,5.37
2023-07-17T03:13:48.098Z,5.53
2023-07-17T03:19:52.568Z,6.07
2023-07-17T03:26:10.086Z,6.85
2023-07-17T03:32:12.610Z,6.93
2023-07-17T03:38:30.103Z,5.80
2023-07-17T03:44:32.660Z,9.52
2023-07-17T03:50:37.075Z,9.67
2023-07-17T03:56:41.564Z,6.23
2023-07-17T04:02:47.051Z,6.35
2023-07-17T04:08:49.468Z,6.10
2023-07-17T04:14:55.453Z,6.07
2023-07-17T04:20:58.391Z,7.25
2023-07-17T04:27:01.848Z,8.95
2023-07-17T04:33:06.479Z,7.32
2023-07-17T04:39:45.741Z,30.58
2023-07-17T04:46:00.481Z,33.05
2023-07-17T04:52:38.139Z,11.55
2023-07-17T04:58:45.125Z,7.30
2023-07-17T05:05:20.218Z,8.25
2023-07-17T05:11:28.734Z,6.68
2023-07-17T05:17:49.402Z,6.43
2023-07-17T05:23:55.737Z,6.93
2023-07-17T05:30:09.579Z,29.40
2023-07-17T05:36:13.010Z,12.63
2023-07-17T05:42:19.755Z,17.90
2023-07-17T05:48:29.656Z,53.15
2023-07-17T05:54:47.252Z,10.82
2023-07-17T06:00:54.912Z,7.93
2023-07-17T06:06:59.965Z,8.50
2023-07-17T06:13:10.920Z,8.27
2023-07-17T06:19:22.210Z,6.68
2023-07-17T06:25:27.690Z,9.40
2023-07-17T06:31:29.782Z,7.57
2023-07-17T06:37:44.670Z,6.80
2023-07-17T06:43:47.110Z,8.15
2023-07-17T06:50:10.545Z,8.98
2023-07-17T06:56:15.739Z,6.75
2023-07-17T07:02:19.737Z,9.23
2023-07-17T07:08:30.910Z,8.45
2023-07-17T07:14:45.351Z,7.53
2023-07-17T07:20:53.602Z,8.45
2023-07-17T07:27:01.720Z,7.45
2023-07-17T07:33:04.015Z,6.50
2023-07-17T07:39:13.473Z,6.45
2023-07-17T07:45:22.178Z,6.05
2023-07-17T07:51:36.477Z,7.03
2023-07-17T07:58:01.715Z,7.03
2023-07-17T08:04:06.275Z,7.47
2023-07-17T08:10:42.352Z,7.80
2023-07-17T08:16:59.071Z,7.05
2023-07-17T08:23:04.340Z,6.65
2023-07-17T08:29:22.527Z,6.28
2023-07-17T08:35:29.446Z,6.55
2023-07-17T08:41:31.969Z,7.68
2023-07-17T08:48:08.558Z,6.13
2023-07-17T08:54:30.159Z,6.68
2023-07-17T09:00:52.167Z,6.60
2023-07-17T09:07:01.922Z,5.82
2023-07-17T09:13:56.237Z,5.47
2023-07-17T09:20:26.666Z,5.80
2023-07-17T09:26:39.473Z,6.00
2023-07-17T09:32:50.245Z,5.10
2023-07-17T09:38:56.680Z,4.68
2023-07-17T09:45:00.281Z,3.95
2023-07-17T09:51:15.971Z,4.53
2023-07-17T09:57:35.290Z,4.70
2023-07-17T10:03:40.736Z,4.55
2023-07-17T10:09:45.837Z,4.25
2023-07-17T10:15:51.553Z,4.53
2023-07-17T10:22:36.563Z,5.07
2023-07-17T10:28:39.998Z,4.38
2023-07-17T10:34:54.517Z,4.65
2023-07-17T10:41:17.290Z,4.28
2023-07-17T10:47:27.825Z,5.30
2023-07-17T10:53:32.033Z,5.03
2023-07-17T10:59:37.799Z,4.07
2023-07-17T11:05:45.745Z,4.82
2023-07-17T11:11:54.813Z,4.80
2023-07-17T11:18:06.364Z,5.10
2023-07-17T11:24:08.618Z,4.25
2023-07-17T11:30:26.354Z,4.50
2023-07-17T11:36:39.828Z,5.15
2023-07-17T11:43:05.405Z,4.15
2023-07-17T11:49:08.396Z,4.30
2023-07-17T11:55:36.495Z,4.47
2023-07-17T12:01:42.674Z,4.70
2023-07-17T12:07:46.590Z,5.38
2023-07-17T12:13:49.683Z,5.18
2023-07-17T12:19:51.570Z,4.75
2023-07-17T12:25:53.373Z,4.45
2023-07-17T12:31:57.034Z,5.20
2023-07-17T12:38:00.489Z,4.45
2023-07-17T12:44:37.047Z,5.18
2023-07-17T12:50:40.646Z,4.78
2023-07-17T12:56:47.861Z,4.35
2023-07-17T13:02:50.665Z,4.10
2023-07-17T13:08:56.950Z,5.63
2023-07-17T13:15:00.469Z,6.68
2023-07-17T13:21:02.606Z,4.43
2023-07-17T13:27:09.596Z,4.30
2023-07-17T13:33:11.972Z,4.97
2023-07-17T13:39:16.669Z,5.97
2023-07-17T13:45:42.586Z,4.95
2023-07-17T13:51:49.063Z,4.03
2023-07-17T13:58:06.446Z,3.78
2023-07-17T14:04:24.225Z,4.65
2023-07-17T14:17:04.181Z,4.47
2023-07-17T14:23:25.625Z,4.07
2023-07-17T14:30:10.091Z,4.60
2023-07-17T14:36:49.310Z,5.13
2023-07-17T14:43:59.893Z,4.40
2023-07-17T14:58:02.365Z,4.53
2023-07-17T15:04:17.832Z,5.63
2023-07-17T15:17:47.045Z,5.07
2023-07-17T15:39:08.475Z,6.13
2023-07-17T15:58:14.514Z,4.43
2023-07-17T15:59:14.162Z,5.15
2023-07-17T16:05:17.256Z,5.72
2023-07-17T17:02:31.303Z,5.70
2023-07-17T17:28:08.656Z,5.13
2023-07-17T17:34:13.442Z,5.05
2023-07-17T17:40:15.429Z,8.93
2023-07-17T17:46:27.999Z,8.55
2023-07-17T17:52:33.756Z,8.38
2023-07-17T17:58:50.678Z,7.63
2023-07-17T18:05:03.236Z,10.55
2023-07-17T18:11:13.843Z,11.52
2023-07-17T18:17:41.059Z,11.57
2023-07-17T18:23:43.861Z,12.55
2023-07-17T18:29:51.378Z,12.07
2023-07-17T18:35:55.834Z,15.30
2023-07-17T18:42:11.402Z,36.80
2023-07-17T18:48:20.576Z,36.75
2023-07-17T18:54:35.410Z,29.13
2023-07-17T19:00:44.903Z,32.85
2023-07-17T19:07:08.494Z,19.25
2023-07-17T19:13:22.044Z,19.27
2023-07-17T19:19:34.519Z,23.30
2023-07-17T19:25:46.368Z,17.55
2023-07-17T19:31:49.499Z,13.57
2023-07-17T19:44:08.466Z,7.40
2023-07-17T19:50:41.256Z,6.22
2023-07-17T19:56:46.459Z,7.05
2023-07-17T20:02:49.042Z,7.20
2023-07-17T20:08:57.988Z,7.07
2023-07-17T20:15:30.181Z,7.20
2023-07-17T20:21:55.556Z,8.80
2023-07-17T20:28:23.561Z,9.32
2023-07-17T20:41:52.739Z,9.77
2023-07-17T20:48:09.752Z,9.60
2023-07-17T20:53:19.346Z,7.95
2023-07-17T20:54:32.591Z,9.50
2023-07-17T21:00:54.421Z,8.38
2023-07-17T21:07:00.944Z,7.97
2023-07-17T21:13:13.013Z,8.40
2023-07-17T21:19:23.040Z,7.10
2023-07-17T21:25:37.381Z,7.75
2023-07-17T21:31:55.179Z,7.57
2023-07-17T21:38:02.736Z,6.70
2023-07-17T21:44:21.375Z,7.57
2023-07-17T21:50:39.579Z,8.88
2023-07-17T21:56:42.498Z,5.80
2023-07-17T22:02:54.842Z,6.80
2023-07-17T22:09:07.420Z,7.20
2023-07-17T22:15:48.045Z,6.78
2023-07-17T22:22:05.176Z,9.55
2023-07-17T22:28:17.808Z,8.77
2023-07-17T22:34:23.398Z,9.07
2023-07-17T22:40:36.946Z,5.63
2023-07-17T22:46:48.502Z,9.25
2023-07-17T22:52:51.809Z,8.45
2023-07-17T22:59:26.622Z,6.38
2023-07-17T23:05:32.993Z,7.10
2023-07-17T23:11:41.355Z,7.18
2023-07-17T23:17:52.815Z,6.30
2023-07-17T23:23:55.512Z,6.80
2023-07-17T23:30:22.157Z,6.22
2023-07-17T23:36:35.131Z,5.90
2023-07-17T23:42:43.737Z,6.28
2023-07-17T23:49:12.634Z,6.10
2023-07-17T23:55:53.592Z,6.32
